sensor_id;sensor_type;location;lat;lon;timestamp;P1;durP1;ratioP1;P2;durP2;ratioP2
18929;SDS011;43305;52.186;5.598;2024-02-04T00:02:17;23.15;;;11.93;;
18929;SDS011;43305;52.186;5.598;2024-02-04T00:04:45;21.15;;;11.68;;
18929;SDS011;43305;52.186;5.598;2024-02-04T00:07:12;23.02;;;11.93;;
18929;SDS011;43305;52.186;5.598;2024-02-04T00:09:39;20.38;;;9.88;;
18929;SDS011;43305;52.186;5.598;2024-02-04T00:12:06;19.60;;;9.02;;
18929;SDS011;43305;52.186;5.598;2024-02-04T00:14:33;19.02;;;7.97;;
18929;SDS011;43305;52.186;5.598;2024-02-04T00:17:00;17.60;;;7.85;;
18929;SDS011;43305;52.186;5.598;2024-02-04T00:19:28;15.88;;;7.68;;
18929;SDS011;43305;52.186;5.598;2024-02-04T00:21:55;15.55;;;7.13;;
18929;SDS011;43305;52.186;5.598;2024-02-04T00:24:22;13.73;;;6.15;;
18929;SDS011;43305;52.186;5.598;2024-02-04T00:26:48;14.80;;;5.88;;
18929;SDS011;43305;52.186;5.598;2024-02-04T00:29:14;12.38;;;6.38;;
18929;SDS011;43305;52.186;5.598;2024-02-04T00:31:41;13.13;;;6.28;;
18929;SDS011;43305;52.186;5.598;2024-02-04T00:34:10;15.50;;;6.30;;
18929;SDS011;43305;52.186;5.598;2024-02-04T00:36:38;13.52;;;6.10;;
18929;SDS011;43305;52.186;5.598;2024-02-04T00:39:05;12.80;;;5.72;;
18929;SDS011;43305;52.186;5.598;2024-02-04T00:41:33;11.55;;;6.00;;
18929;SDS011;43305;52.186;5.598;2024-02-04T00:44:00;15.90;;;6.05;;
18929;SDS011;43305;52.186;5.598;2024-02-04T00:46:27;15.52;;;6.05;;
18929;SDS011;43305;52.186;5.598;2024-02-04T00:48:54;10.18;;;5.55;;
18929;SDS011;43305;52.186;5.598;2024-02-04T00:51:21;10.40;;;6.15;;
18929;SDS011;43305;52.186;5.598;2024-02-04T00:53:52;13.38;;;6.80;;
18929;SDS011;43305;52.186;5.598;2024-02-04T00:56:19;15.05;;;7.05;;
18929;SDS011;43305;52.186;5.598;2024-02-04T00:58:46;12.10;;;7.07;;
18929;SDS011;43305;52.186;5.598;2024-02-04T01:01:13;9.60;;;6.85;;
18929;SDS011;43305;52.186;5.598;2024-02-04T01:03:39;18.88;;;8.38;;
18929;SDS011;43305;52.186;5.598;2024-02-04T01:06:06;18.27;;;8.57;;
18929;SDS011;43305;52.186;5.598;2024-02-04T01:08:33;17.25;;;9.20;;
18929;SDS011;43305;52.186;5.598;2024-02-04T01:11:04;19.85;;;10.68;;
18929;SDS011;43305;52.186;5.598;2024-02-04T01:13:31;20.70;;;11.70;;
18929;SDS011;43305;52.186;5.598;2024-02-04T01:15:58;25.40;;;13.25;;
18929;SDS011;43305;52.186;5.598;2024-02-04T01:18:25;26.83;;;13.80;;
18929;SDS011;43305;52.186;5.598;2024-02-04T01:20:52;29.50;;;13.95;;
18929;SDS011;43305;52.186;5.598;2024-02-04T01:23:18;26.98;;;14.52;;
18929;SDS011;43305;52.186;5.598;2024-02-04T01:25:45;31.65;;;14.15;;
18929;SDS011;43305;52.186;5.598;2024-02-04T01:28:14;33.63;;;14.30;;
18929;SDS011;43305;52.186;5.598;2024-02-04T01:30:40;33.28;;;14.30;;
18929;SDS011;43305;52.186;5.598;2024-02-04T01:33:07;37.58;;;15.18;;
18929;SDS011;43305;52.186;5.598;2024-02-04T01:35:34;42.55;;;15.40;;
18929;SDS011;43305;52.186;5.598;2024-02-04T01:38:01;35.70;;;15.10;;
18929;SDS011;43305;52.186;5.598;2024-02-04T01:40:30;34.50;;;14.45;;
18929;SDS011;43305;52.186;5.598;2024-02-04T01:42:57;36.08;;;12.73;;
18929;SDS011;43305;52.186;5.598;2024-02-04T01:45:25;25.00;;;10.40;;
18929;SDS011;43305;52.186;5.598;2024-02-04T01:47:52;28.52;;;9.95;;
18929;SDS011;43305;52.186;5.598;2024-02-04T01:50:20;29.80;;;10.82;;
18929;SDS011;43305;52.186;5.598;2024-02-04T01:52:48;34.35;;;10.40;;
18929;SDS011;43305;52.186;5.598;2024-02-04T01:55:17;32.63;;;11.13;;
18929;SDS011;43305;52.186;5.598;2024-02-04T01:57:44;28.65;;;10.20;;
18929;SDS011;43305;52.186;5.598;2024-02-04T02:00:16;25.95;;;9.95;;
18929;SDS011;43305;52.186;5.598;2024-02-04T02:02:46;34.45;;;11.38;;
18929;SDS011;43305;52.186;5.598;2024-02-04T02:05:14;41.63;;;12.40;;
18929;SDS011;43305;52.186;5.598;2024-02-04T02:07:41;30.65;;;12.23;;
18929;SDS011;43305;52.186;5.598;2024-02-04T02:10:12;37.15;;;12.45;;
18929;SDS011;43305;52.186;5.598;2024-02-04T02:12:42;26.60;;;10.50;;
18929;SDS011;43305;52.186;5.598;2024-02-04T02:15:15;25.75;;;8.18;;
18929;SDS011;43305;52.186;5.598;2024-02-04T02:17:50;25.42;;;7.90;;
18929;SDS011;43305;52.186;5.598;2024-02-04T02:20:21;16.40;;;7.55;;
18929;SDS011;43305;52.186;5.598;2024-02-04T02:22:50;24.50;;;8.73;;
18929;SDS011;43305;52.186;5.598;2024-02-04T02:25:28;21.27;;;8.73;;
18929;SDS011;43305;52.186;5.598;2024-02-04T02:27:57;23.70;;;7.30;;
18929;SDS011;43305;52.186;5.598;2024-02-04T02:30:23;23.88;;;8.05;;
18929;SDS011;43305;52.186;5.598;2024-02-04T02:32:50;19.40;;;6.60;;
18929;SDS011;43305;52.186;5.598;2024-02-04T02:35:17;21.83;;;5.65;;
18929;SDS011;43305;52.186;5.598;2024-02-04T02:37:46;17.95;;;5.45;;
18929;SDS011;43305;52.186;5.598;2024-02-04T02:40:21;19.88;;;5.32;;
18929;SDS011;43305;52.186;5.598;2024-02-04T02:42:51;18.73;;;5.20;;
18929;SDS011;43305;52.186;5.598;2024-02-04T02:45:19;19.10;;;5.05;;
18929;SDS011;43305;52.186;5.598;2024-02-04T02:47:48;20.88;;;5.47;;
18929;SDS011;43305;52.186;5.598;2024-02-04T02:50:16;18.20;;;5.00;;
18929;SDS011;43305;52.186;5.598;2024-02-04T02:52:45;16.42;;;4.65;;
18929;SDS011;43305;52.186;5.598;2024-02-04T02:55:12;20.50;;;5.03;;
18929;SDS011;43305;52.186;5.598;2024-02-04T02:57:39;14.63;;;5.03;;
18929;SDS011;43305;52.186;5.598;2024-02-04T03:00:08;14.70;;;5.18;;
18929;SDS011;43305;52.186;5.598;2024-02-04T03:02:35;15.35;;;5.00;;
18929;SDS011;43305;52.186;5.598;2024-02-04T03:05:02;16.88;;;5.15;;
18929;SDS011;43305;52.186;5.598;2024-02-04T03:07:29;16.77;;;6.43;;
18929;SDS011;43305;52.186;5.598;2024-02-04T03:09:57;14.80;;;5.47;;
18929;SDS011;43305;52.186;5.598;2024-02-04T03:12:24;20.63;;;5.85;;
18929;SDS011;43305;52.186;5.598;2024-02-04T03:14:50;17.70;;;5.90;;
18929;SDS011;43305;52.186;5.598;2024-02-04T03:17:19;19.35;;;6.38;;
18929;SDS011;43305;52.186;5.598;2024-02-04T03:19:47;15.75;;;6.18;;
18929;SDS011;43305;52.186;5.598;2024-02-04T03:22:16;22.15;;;6.88;;
18929;SDS011;43305;52.186;5.598;2024-02-04T03:24:45;22.80;;;7.53;;
18929;SDS011;43305;52.186;5.598;2024-02-04T03:27:12;21.00;;;7.03;;
18929;SDS011;43305;52.186;5.598;2024-02-04T03:29:39;21.50;;;7.05;;
18929;SDS011;43305;52.186;5.598;2024-02-04T03:32:06;17.40;;;7.10;;
18929;SDS011;43305;52.186;5.598;2024-02-04T03:34:34;25.05;;;7.93;;
18929;SDS011;43305;52.186;5.598;2024-02-04T03:37:01;21.00;;;7.78;;
18929;SDS011;43305;52.186;5.598;2024-02-04T03:39:28;23.50;;;7.70;;
18929;SDS011;43305;52.186;5.598;2024-02-04T03:41:54;22.10;;;7.75;;
18929;SDS011;43305;52.186;5.598;2024-02-04T03:44:21;19.92;;;8.15;;
18929;SDS011;43305;52.186;5.598;2024-02-04T03:46:51;20.17;;;8.48;;
18929;SDS011;43305;52.186;5.598;2024-02-04T03:49:18;25.30;;;8.98;;
18929;SDS011;43305;52.186;5.598;2024-02-04T03:51:48;29.48;;;9.32;;
18929;SDS011;43305;52.186;5.598;2024-02-04T03:54:15;22.92;;;9.10;;
18929;SDS011;43305;52.186;5.598;2024-02-04T03:56:44;28.30;;;9.55;;
18929;SDS011;43305;52.186;5.598;2024-02-04T03:59:10;18.67;;;7.68;;
18929;SDS011;43305;52.186;5.598;2024-02-04T04:01:37;24.67;;;7.70;;
18929;SDS011;43305;52.186;5.598;2024-02-04T04:04:04;21.15;;;7.53;;
18929;SDS011;43305;52.186;5.598;2024-02-04T04:06:32;23.25;;;6.45;;
18929;SDS011;43305;52.186;5.598;2024-02-04T04:09:01;22.00;;;5.93;;
18929;SDS011;43305;52.186;5.598;2024-02-04T04:11:31;24.40;;;5.78;;
18929;SDS011;43305;52.186;5.598;2024-02-04T04:13:58;19.13;;;5.63;;
18929;SDS011;43305;52.186;5.598;2024-02-04T04:16:25;17.10;;;4.75;;
18929;SDS011;43305;52.186;5.598;2024-02-04T04:18:52;17.08;;;5.25;;
18929;SDS011;43305;52.186;5.598;2024-02-04T04:21:19;17.02;;;4.03;;
18929;SDS011;43305;52.186;5.598;2024-02-04T04:23:46;17.35;;;3.83;;
18929;SDS011;43305;52.186;5.598;2024-02-04T04:26:14;17.67;;;4.45;;
18929;SDS011;43305;52.186;5.598;2024-02-04T04:28:41;15.93;;;3.60;;
18929;SDS011;43305;52.186;5.598;2024-02-04T04:31:08;10.68;;;3.60;;
18929;SDS011;43305;52.186;5.598;2024-02-04T04:33:35;13.38;;;3.50;;
18929;SDS011;43305;52.186;5.598;2024-02-04T04:36:02;14.80;;;3.30;;
18929;SDS011;43305;52.186;5.598;2024-02-04T04:38:30;17.27;;;3.83;;
18929;SDS011;43305;52.186;5.598;2024-02-04T04:40:57;13.80;;;3.35;;
18929;SDS011;43305;52.186;5.598;2024-02-04T04:43:25;17.73;;;3.40;;
18929;SDS011;43305;52.186;5.598;2024-02-04T04:45:52;13.60;;;2.70;;
18929;SDS011;43305;52.186;5.598;2024-02-04T04:48:19;16.98;;;3.03;;
18929;SDS011;43305;52.186;5.598;2024-02-04T04:50:46;14.82;;;3.45;;
18929;SDS011;43305;52.186;5.598;2024-02-04T04:53:12;12.98;;;3.17;;
18929;SDS011;43305;52.186;5.598;2024-02-04T04:55:39;12.55;;;2.90;;
18929;SDS011;43305;52.186;5.598;2024-02-04T04:58:06;14.43;;;3.47;;
18929;SDS011;43305;52.186;5.598;2024-02-04T05:00:34;16.63;;;3.53;;
18929;SDS011;43305;52.186;5.598;2024-02-04T05:03:01;12.50;;;3.72;;
18929;SDS011;43305;52.186;5.598;2024-02-04T05:05:28;17.30;;;4.40;;
18929;SDS011;43305;52.186;5.598;2024-02-04T05:07:55;14.13;;;4.22;;
18929;SDS011;43305;52.186;5.598;2024-02-04T05:10:22;22.27;;;5.55;;
18929;SDS011;43305;52.186;5.598;2024-02-04T05:12:51;13.85;;;4.32;;
18929;SDS011;43305;52.186;5.598;2024-02-04T05:15:18;21.95;;;5.05;;
18929;SDS011;43305;52.186;5.598;2024-02-04T05:17:47;17.55;;;4.90;;
18929;SDS011;43305;52.186;5.598;2024-02-04T05:20:14;23.70;;;5.13;;
18929;SDS011;43305;52.186;5.598;2024-02-04T05:22:41;15.43;;;4.95;;
18929;SDS011;43305;52.186;5.598;2024-02-04T05:25:08;15.40;;;4.03;;
18929;SDS011;43305;52.186;5.598;2024-02-04T05:27:35;21.77;;;4.65;;
18929;SDS011;43305;52.186;5.598;2024-02-04T05:30:02;19.23;;;4.97;;
18929;SDS011;43305;52.186;5.598;2024-02-04T05:32:33;17.75;;;4.72;;
18929;SDS011;43305;52.186;5.598;2024-02-04T05:35:08;15.13;;;4.32;;
18929;SDS011;43305;52.186;5.598;2024-02-04T05:37:35;18.00;;;4.60;;
18929;SDS011;43305;52.186;5.598;2024-02-04T05:40:02;14.65;;;4.38;;
18929;SDS011;43305;52.186;5.598;2024-02-04T05:42:30;20.60;;;4.80;;
18929;SDS011;43305;52.186;5.598;2024-02-04T05:44:57;15.10;;;4.72;;
18929;SDS011;43305;52.186;5.598;2024-02-04T05:47:24;22.25;;;4.82;;
18929;SDS011;43305;52.186;5.598;2024-02-04T05:49:51;16.40;;;4.25;;
18929;SDS011;43305;52.186;5.598;2024-02-04T05:52:19;13.40;;;4.20;;
18929;SDS011;43305;52.186;5.598;2024-02-04T05:54:46;17.20;;;4.45;;
18929;SDS011;43305;52.186;5.598;2024-02-04T05:57:13;20.20;;;4.40;;
18929;SDS011;43305;52.186;5.598;2024-02-04T05:59:40;13.98;;;4.25;;
18929;SDS011;43305;52.186;5.598;2024-02-04T06:02:09;18.85;;;5.13;;
18929;SDS011;43305;52.186;5.598;2024-02-04T06:04:36;22.60;;;4.93;;
18929;SDS011;43305;52.186;5.598;2024-02-04T06:07:05;16.20;;;4.40;;
18929;SDS011;43305;52.186;5.598;2024-02-04T06:09:33;18.98;;;4.70;;
18929;SDS011;43305;52.186;5.598;2024-02-04T06:12:04;19.85;;;4.88;;
18929;SDS011;43305;52.186;5.598;2024-02-04T06:14:32;18.48;;;4.95;;
18929;SDS011;43305;52.186;5.598;2024-02-04T06:17:04;15.95;;;4.57;;
18929;SDS011;43305;52.186;5.598;2024-02-04T06:19:33;16.88;;;4.80;;
18929;SDS011;43305;52.186;5.598;2024-02-04T06:22:00;15.02;;;5.13;;
18929;SDS011;43305;52.186;5.598;2024-02-04T06:24:27;17.75;;;4.60;;
18929;SDS011;43305;52.186;5.598;2024-02-04T06:26:55;16.00;;;4.60;;
18929;SDS011;43305;52.186;5.598;2024-02-04T06:29:22;15.43;;;4.97;;
18929;SDS011;43305;52.186;5.598;2024-02-04T06:31:49;16.30;;;4.72;;
18929;SDS011;43305;52.186;5.598;2024-02-04T06:34:23;12.98;;;4.05;;
18929;SDS011;43305;52.186;5.598;2024-02-04T06:36:50;13.40;;;4.53;;
18929;SDS011;43305;52.186;5.598;2024-02-04T06:39:17;20.40;;;4.82;;
18929;SDS011;43305;52.186;5.598;2024-02-04T06:41:44;15.52;;;4.70;;
18929;SDS011;43305;52.186;5.598;2024-02-04T06:44:12;16.23;;;4.57;;
18929;SDS011;43305;52.186;5.598;2024-02-04T06:46:39;20.65;;;5.10;;
18929;SDS011;43305;52.186;5.598;2024-02-04T06:49:06;16.30;;;5.20;;
18929;SDS011;43305;52.186;5.598;2024-02-04T06:51:33;15.23;;;5.35;;
18929;SDS011;43305;52.186;5.598;2024-02-04T06:54:00;17.30;;;5.20;;
18929;SDS011;43305;52.186;5.598;2024-02-04T06:56:27;21.77;;;6.47;;
18929;SDS011;43305;52.186;5.598;2024-02-04T06:58:54;15.35;;;6.05;;
18929;SDS011;43305;52.186;5.598;2024-02-04T07:01:22;20.95;;;6.55;;
18929;SDS011;43305;52.186;5.598;2024-02-04T07:03:49;20.77;;;6.97;;
18929;SDS011;43305;52.186;5.598;2024-02-04T07:06:16;20.88;;;6.90;;
18929;SDS011;43305;52.186;5.598;2024-02-04T07:08:43;16.17;;;6.80;;
18929;SDS011;43305;52.186;5.598;2024-02-04T07:11:10;23.80;;;8.18;;
18929;SDS011;43305;52.186;5.598;2024-02-04T07:13:37;20.67;;;8.15;;
18929;SDS011;43305;52.186;5.598;2024-02-04T07:16:04;20.70;;;8.30;;
18929;SDS011;43305;52.186;5.598;2024-02-04T07:18:32;20.95;;;8.60;;
18929;SDS011;43305;52.186;5.598;2024-02-04T07:21:01;21.92;;;8.95;;
18929;SDS011;43305;52.186;5.598;2024-02-04T07:23:31;24.92;;;9.68;;
18929;SDS011;43305;52.186;5.598;2024-02-04T07:25:58;24.92;;;8.65;;
18929;SDS011;43305;52.186;5.598;2024-02-04T07:28:24;14.18;;;7.22;;
18929;SDS011;43305;52.186;5.598;2024-02-04T07:30:51;20.13;;;8.05;;
18929;SDS011;43305;52.186;5.598;2024-02-04T07:33:21;16.95;;;8.02;;
18929;SDS011;43305;52.186;5.598;2024-02-04T07:35:49;20.10;;;8.13;;
18929;SDS011;43305;52.186;5.598;2024-02-04T07:38:16;19.98;;;8.20;;
18929;SDS011;43305;52.186;5.598;2024-02-04T07:40:43;21.75;;;8.32;;
18929;SDS011;43305;52.186;5.598;2024-02-04T07:43:10;17.08;;;8.85;;
18929;SDS011;43305;52.186;5.598;2024-02-04T07:45:37;25.55;;;11.20;;
18929;SDS011;43305;52.186;5.598;2024-02-04T07:48:04;24.50;;;13.05;;
18929;SDS011;43305;52.186;5.598;2024-02-04T07:50:32;27.88;;;14.57;;
18929;SDS011;43305;52.186;5.598;2024-02-04T07:53:02;23.90;;;12.35;;
18929;SDS011;43305;52.186;5.598;2024-02-04T07:55:32;26.25;;;13.27;;
18929;SDS011;43305;52.186;5.598;2024-02-04T07:58:01;26.73;;;12.73;;
18929;SDS011;43305;52.186;5.598;2024-02-04T08:00:28;34.42;;;13.07;;
18929;SDS011;43305;52.186;5.598;2024-02-04T08:02:55;27.95;;;11.80;;
18929;SDS011;43305;52.186;5.598;2024-02-04T08:05:22;20.50;;;10.65;;
18929;SDS011;43305;52.186;5.598;2024-02-04T08:07:49;23.98;;;11.20;;
18929;SDS011;43305;52.186;5.598;2024-02-04T08:10:17;23.77;;;10.68;;
18929;SDS011;43305;52.186;5.598;2024-02-04T08:12:44;20.48;;;9.95;;
18929;SDS011;43305;52.186;5.598;2024-02-04T08:15:15;20.10;;;9.57;;
18929;SDS011;43305;52.186;5.598;2024-02-04T08:17:42;23.63;;;9.23;;
18929;SDS011;43305;52.186;5.598;2024-02-04T08:20:10;18.80;;;9.02;;
18929;SDS011;43305;52.186;5.598;2024-02-04T08:22:37;15.98;;;7.82;;
18929;SDS011;43305;52.186;5.598;2024-02-04T08:25:04;18.33;;;7.93;;
18929;SDS011;43305;52.186;5.598;2024-02-04T08:27:33;17.40;;;7.75;;
18929;SDS011;43305;52.186;5.598;2024-02-04T08:30:00;13.93;;;7.20;;
18929;SDS011;43305;52.186;5.598;2024-02-04T08:32:27;14.25;;;6.65;;
18929;SDS011;43305;52.186;5.598;2024-02-04T08:34:54;11.02;;;5.95;;
18929;SDS011;43305;52.186;5.598;2024-02-04T08:37:21;16.58;;;5.93;;
18929;SDS011;43305;52.186;5.598;2024-02-04T08:39:48;15.63;;;5.95;;
18929;SDS011;43305;52.186;5.598;2024-02-04T08:42:14;14.05;;;4.65;;
18929;SDS011;43305;52.186;5.598;2024-02-04T08:44:43;11.32;;;4.32;;
18929;SDS011;43305;52.186;5.598;2024-02-04T08:47:10;8.80;;;3.67;;
18929;SDS011;43305;52.186;5.598;2024-02-04T08:49:39;11.95;;;4.00;;
18929;SDS011;43305;52.186;5.598;2024-02-04T08:52:08;7.47;;;3.40;;
18929;SDS011;43305;52.186;5.598;2024-02-04T08:54:35;8.90;;;2.85;;
18929;SDS011;43305;52.186;5.598;2024-02-04T08:57:02;7.95;;;3.50;;
18929;SDS011;43305;52.186;5.598;2024-02-04T08:59:29;11.55;;;3.25;;
18929;SDS011;43305;52.186;5.598;2024-02-04T09:01:57;5.95;;;2.65;;
18929;SDS011;43305;52.186;5.598;2024-02-04T09:04:24;7.38;;;2.50;;
18929;SDS011;43305;52.186;5.598;2024-02-04T09:06:51;10.10;;;3.00;;
18929;SDS011;43305;52.186;5.598;2024-02-04T09:09:17;6.95;;;3.00;;
18929;SDS011;43305;52.186;5.598;2024-02-04T09:11:44;7.65;;;3.05;;
18929;SDS011;43305;52.186;5.598;2024-02-04T09:14:11;10.38;;;4.25;;
18929;SDS011;43305;52.186;5.598;2024-02-04T09:16:38;12.60;;;4.40;;
18929;SDS011;43305;52.186;5.598;2024-02-04T09:19:06;12.13;;;5.20;;
18929;SDS011;43305;52.186;5.598;2024-02-04T09:21:33;11.07;;;4.75;;
18929;SDS011;43305;52.186;5.598;2024-02-04T09:24:00;15.05;;;5.45;;
18929;SDS011;43305;52.186;5.598;2024-02-04T09:26:27;12.38;;;5.15;;
18929;SDS011;43305;52.186;5.598;2024-02-04T09:28:53;12.75;;;5.40;;
18929;SDS011;43305;52.186;5.598;2024-02-04T09:31:20;13.82;;;5.03;;
18929;SDS011;43305;52.186;5.598;2024-02-04T09:33:47;15.82;;;5.47;;
18929;SDS011;43305;52.186;5.598;2024-02-04T09:36:17;14.35;;;5.68;;
18929;SDS011;43305;52.186;5.598;2024-02-04T09:38:44;10.93;;;5.05;;
18929;SDS011;43305;52.186;5.598;2024-02-04T09:41:11;11.27;;;4.75;;
18929;SDS011;43305;52.186;5.598;2024-02-04T09:43:38;16.15;;;7.95;;
18929;SDS011;43305;52.186;5.598;2024-02-04T09:46:05;14.50;;;7.10;;
18929;SDS011;43305;52.186;5.598;2024-02-04T09:48:33;8.88;;;5.28;;
18929;SDS011;43305;52.186;5.598;2024-02-04T09:51:04;9.50;;;4.35;;
18929;SDS011;43305;52.186;5.598;2024-02-04T09:53:36;12.77;;;3.45;;
18929;SDS011;43305;52.186;5.598;2024-02-04T09:56:09;14.82;;;3.92;;
18929;SDS011;43305;52.186;5.598;2024-02-04T09:58:37;6.47;;;3.58;;
18929;SDS011;43305;52.186;5.598;2024-02-04T10:01:04;7.38;;;3.05;;
18929;SDS011;43305;52.186;5.598;2024-02-04T10:03:36;7.88;;;2.63;;
18929;SDS011;43305;52.186;5.598;2024-02-04T10:06:05;7.32;;;2.70;;
18929;SDS011;43305;52.186;5.598;2024-02-04T10:08:34;8.80;;;3.25;;
18929;SDS011;43305;52.186;5.598;2024-02-04T10:11:02;7.15;;;2.58;;
18929;SDS011;43305;52.186;5.598;2024-02-04T10:13:29;9.88;;;3.03;;
18929;SDS011;43305;52.186;5.598;2024-02-04T10:15:56;11.80;;;3.05;;
18929;SDS011;43305;52.186;5.598;2024-02-04T10:18:23;6.88;;;2.28;;
18929;SDS011;43305;52.186;5.598;2024-02-04T10:20:51;5.55;;;2.13;;
18929;SDS011;43305;52.186;5.598;2024-02-04T10:23:18;5.03;;;1.80;;
18929;SDS011;43305;52.186;5.598;2024-02-04T10:25:46;5.60;;;1.67;;
18929;SDS011;43305;52.186;5.598;2024-02-04T10:28:13;5.60;;;2.25;;
18929;SDS011;43305;52.186;5.598;2024-02-04T10:30:41;6.50;;;1.73;;
18929;SDS011;43305;52.186;5.598;2024-02-04T10:33:08;6.97;;;1.48;;
18929;SDS011;43305;52.186;5.598;2024-02-04T10:35:35;7.30;;;2.03;;
18929;SDS011;43305;52.186;5.598;2024-02-04T10:38:02;4.60;;;1.90;;
18929;SDS011;43305;52.186;5.598;2024-02-04T10:40:29;6.32;;;1.90;;
18929;SDS011;43305;52.186;5.598;2024-02-04T10:43:04;5.80;;;2.25;;
18929;SDS011;43305;52.186;5.598;2024-02-04T10:45:32;9.20;;;1.67;;
18929;SDS011;43305;52.186;5.598;2024-02-04T10:48:01;3.80;;;1.70;;
18929;SDS011;43305;52.186;5.598;2024-02-04T10:50:28;5.95;;;1.75;;
18929;SDS011;43305;52.186;5.598;2024-02-04T10:52:57;7.40;;;1.98;;
18929;SDS011;43305;52.186;5.598;2024-02-04T10:55:32;6.57;;;1.55;;
18929;SDS011;43305;52.186;5.598;2024-02-04T10:58:03;7.70;;;1.83;;
18929;SDS011;43305;52.186;5.598;2024-02-04T11:00:32;4.07;;;1.40;;
18929;SDS011;43305;52.186;5.598;2024-02-04T11:03:00;7.38;;;1.83;;
18929;SDS011;43305;52.186;5.598;2024-02-04T11:05:28;10.20;;;2.42;;
18929;SDS011;43305;52.186;5.598;2024-02-04T11:07:56;10.52;;;2.88;;
18929;SDS011;43305;52.186;5.598;2024-02-04T11:10:24;12.07;;;3.30;;
18929;SDS011;43305;52.186;5.598;2024-02-04T11:12:52;6.10;;;2.85;;
18929;SDS011;43305;52.186;5.598;2024-02-04T11:15:22;7.85;;;3.45;;
18929;SDS011;43305;52.186;5.598;2024-02-04T11:21:07;3.38;;;1.30;;
18929;SDS011;43305;52.186;5.598;2024-02-04T11:23:48;4.13;;;1.90;;
18929;SDS011;43305;52.186;5.598;2024-02-04T11:26:27;4.70;;;2.00;;
18929;SDS011;43305;52.186;5.598;2024-02-04T11:28:54;6.43;;;2.30;;
18929;SDS011;43305;52.186;5.598;2024-02-04T11:31:22;3.90;;;2.25;;
18929;SDS011;43305;52.186;5.598;2024-02-04T11:33:50;5.78;;;1.83;;
18929;SDS011;43305;52.186;5.598;2024-02-04T11:36:17;4.68;;;2.00;;
18929;SDS011;43305;52.186;5.598;2024-02-04T11:38:47;5.22;;;1.95;;
18929;SDS011;43305;52.186;5.598;2024-02-04T11:41:21;3.08;;;1.73;;
18929;SDS011;43305;52.186;5.598;2024-02-04T11:43:52;6.10;;;2.75;;
18929;SDS011;43305;52.186;5.598;2024-02-04T11:46:20;7.25;;;2.90;;
18929;SDS011;43305;52.186;5.598;2024-02-04T11:48:52;4.80;;;2.65;;
18929;SDS011;43305;52.186;5.598;2024-02-04T11:51:21;6.35;;;3.90;;
18929;SDS011;43305;52.186;5.598;2024-02-04T11:53:49;5.53;;;3.25;;
18929;SDS011;43305;52.186;5.598;2024-02-04T11:56:16;7.75;;;4.20;;
18929;SDS011;43305;52.186;5.598;2024-02-04T11:58:44;5.43;;;4.00;;
18929;SDS011;43305;52.186;5.598;2024-02-04T12:01:11;9.88;;;3.40;;
18929;SDS011;43305;52.186;5.598;2024-02-04T12:03:38;7.90;;;4.80;;
18929;SDS011;43305;52.186;5.598;2024-02-04T12:06:09;10.05;;;5.53;;
18929;SDS011;43305;52.186;5.598;2024-02-04T12:08:41;11.52;;;5.03;;
18929;SDS011;43305;52.186;5.598;2024-02-04T12:11:08;9.80;;;6.10;;
18929;SDS011;43305;52.186;5.598;2024-02-04T12:13:35;10.85;;;5.43;;
18929;SDS011;43305;52.186;5.598;2024-02-04T12:16:04;9.43;;;3.28;;
18929;SDS011;43305;52.186;5.598;2024-02-04T12:18:46;13.40;;;5.13;;
18929;SDS011;43305;52.186;5.598;2024-02-04T12:21:17;17.17;;;7.05;;
18929;SDS011;43305;52.186;5.598;2024-02-04T12:23:45;12.15;;;5.55;;
18929;SDS011;43305;52.186;5.598;2024-02-04T12:26:12;13.27;;;5.35;;
18929;SDS011;43305;52.186;5.598;2024-02-04T12:28:40;15.98;;;5.70;;
18929;SDS011;43305;52.186;5.598;2024-02-04T12:31:07;11.60;;;5.60;;
18929;SDS011;43305;52.186;5.598;2024-02-04T12:33:34;18.63;;;5.90;;
18929;SDS011;43305;52.186;5.598;2024-02-04T12:36:03;19.48;;;7.03;;
18929;SDS011;43305;52.186;5.598;2024-02-04T12:38:31;15.93;;;5.20;;
18929;SDS011;43305;52.186;5.598;2024-02-04T12:41:02;20.10;;;5.32;;
18929;SDS011;43305;52.186;5.598;2024-02-04T12:43:29;12.68;;;4.75;;
18929;SDS011;43305;52.186;5.598;2024-02-04T12:45:56;17.88;;;4.50;;
18929;SDS011;43305;52.186;5.598;2024-02-04T12:48:24;15.52;;;5.13;;
18929;SDS011;43305;52.186;5.598;2024-02-04T12:50:52;15.38;;;3.38;;
18929;SDS011;43305;52.186;5.598;2024-02-04T12:53:19;14.60;;;4.10;;
18929;SDS011;43305;52.186;5.598;2024-02-04T12:55:47;11.77;;;5.47;;
18929;SDS011;43305;52.186;5.598;2024-02-04T12:58:14;15.88;;;5.93;;
18929;SDS011;43305;52.186;5.598;2024-02-04T13:00:42;17.77;;;6.53;;
18929;SDS011;43305;52.186;5.598;2024-02-04T13:03:14;10.38;;;3.53;;
18929;SDS011;43305;52.186;5.598;2024-02-04T13:05:42;13.55;;;4.47;;
18929;SDS011;43305;52.186;5.598;2024-02-04T13:08:10;12.40;;;3.78;;
18929;SDS011;43305;52.186;5.598;2024-02-04T13:10:37;9.73;;;3.50;;
18929;SDS011;43305;52.186;5.598;2024-02-04T13:13:07;14.60;;;3.78;;
18929;SDS011;43305;52.186;5.598;2024-02-04T13:15:36;13.68;;;4.10;;
18929;SDS011;43305;52.186;5.598;2024-02-04T13:18:05;9.02;;;3.30;;
18929;SDS011;43305;52.186;5.598;2024-02-04T13:20:33;9.93;;;3.45;;
18929;SDS011;43305;52.186;5.598;2024-02-04T13:23:00;10.98;;;3.70;;
18929;SDS011;43305;52.186;5.598;2024-02-04T13:25:29;17.25;;;4.28;;
18929;SDS011;43305;52.186;5.598;2024-02-04T13:27:57;9.73;;;4.50;;
18929;SDS011;43305;52.186;5.598;2024-02-04T13:30:25;10.85;;;3.90;;
18929;SDS011;43305;52.186;5.598;2024-02-04T13:32:52;14.45;;;3.85;;
18929;SDS011;43305;52.186;5.598;2024-02-04T13:35:19;13.95;;;3.92;;
18929;SDS011;43305;52.186;5.598;2024-02-04T13:37:47;10.20;;;3.40;;
18929;SDS011;43305;52.186;5.598;2024-02-04T13:40:17;14.45;;;3.28;;
18929;SDS011;43305;52.186;5.598;2024-02-04T13:42:45;11.60;;;3.25;;
18929;SDS011;43305;52.186;5.598;2024-02-04T13:45:12;14.07;;;3.45;;
18929;SDS011;43305;52.186;5.598;2024-02-04T13:47:41;13.43;;;5.32;;
18929;SDS011;43305;52.186;5.598;2024-02-04T13:50:09;10.35;;;2.92;;
18929;SDS011;43305;52.186;5.598;2024-02-04T13:52:36;9.63;;;3.00;;
18929;SDS011;43305;52.186;5.598;2024-02-04T13:55:04;13.20;;;3.28;;
18929;SDS011;43305;52.186;5.598;2024-02-04T13:57:32;11.07;;;2.90;;
18929;SDS011;43305;52.186;5.598;2024-02-04T14:00:01;12.48;;;2.55;;
18929;SDS011;43305;52.186;5.598;2024-02-04T14:02:29;8.45;;;2.55;;
18929;SDS011;43305;52.186;5.598;2024-02-04T14:04:58;10.43;;;2.60;;
18929;SDS011;43305;52.186;5.598;2024-02-04T14:07:25;9.15;;;2.90;;
18929;SDS011;43305;52.186;5.598;2024-02-04T14:09:52;12.45;;;2.42;;
18929;SDS011;43305;52.186;5.598;2024-02-04T14:12:19;9.57;;;2.47;;
18929;SDS011;43305;52.186;5.598;2024-02-04T14:14:46;11.45;;;3.17;;
18929;SDS011;43305;52.186;5.598;2024-02-04T14:17:13;9.85;;;3.40;;
18929;SDS011;43305;52.186;5.598;2024-02-04T14:19:40;18.17;;;9.07;;
18929;SDS011;43305;52.186;5.598;2024-02-04T14:22:08;11.90;;;4.03;;
18929;SDS011;43305;52.186;5.598;2024-02-04T14:24:35;10.10;;;3.33;;
18929;SDS011;43305;52.186;5.598;2024-02-04T14:27:02;12.45;;;3.97;;
18929;SDS011;43305;52.186;5.598;2024-02-04T14:29:29;10.40;;;3.40;;
18929;SDS011;43305;52.186;5.598;2024-02-04T14:31:56;10.68;;;3.55;;
18929;SDS011;43305;52.186;5.598;2024-02-04T14:34:23;8.98;;;2.85;;
18929;SDS011;43305;52.186;5.598;2024-02-04T14:36:50;12.38;;;3.50;;
18929;SDS011;43305;52.186;5.598;2024-02-04T14:39:18;13.95;;;4.00;;
18929;SDS011;43305;52.186;5.598;2024-02-04T14:41:47;11.68;;;3.80;;
18929;SDS011;43305;52.186;5.598;2024-02-04T14:44:19;14.32;;;3.78;;